sensor_id;sensor_type;location;lat;lon;timestamp;pressure;altitude;pressure_sealevel;temperature;humidity
16580;BME280;8402;51.466;6.806;2023-09-08T00:01:28;101459.63;;;22.22;70.33
16580;BME280;8402;51.466;6.806;2023-09-08T00:03:58;101458.78;;;22.18;70.34
16580;BME280;8402;51.466;6.806;2023-09-08T00:06:28;101450.81;;;22.13;70.56
16580;BME280;8402;51.466;6.806;2023-09-08T00:08:58;101453.94;;;22.12;71.01
16580;BME280;8402;51.466;6.806;2023-09-08T00:11:28;101449.97;;;22.09;70.58
16580;BME280;8402;51.466;6.806;2023-09-08T05:46:53;101422.69;;;19.00;78.92
16580;BME280;8402;51.466;6.806;2023-09-08T05:49:23;101426.59;;;18.98;79.18
16580;BME280;8402;51.466;6.806;2023-09-08T05:55:00;101420.66;;;18.96;79.50
16580;BME280;8402;51.466;6.806;2023-09-08T05:57:29;101425.00;;;18.97;79.69
16580;BME280;8402;51.466;6.806;2023-09-08T06:00:02;101430.06;;;18.95;79.83
16580;BME280;8402;51.466;6.806;2023-09-08T06:02:35;101422.59;;;18.96;80.09
16580;BME280;8402;51.466;6.806;2023-09-08T06:05:05;101424.13;;;18.93;80.41
16580;BME280;8402;51.466;6.806;2023-09-08T06:07:35;101430.41;;;18.94;80.77
16580;BME280;8402;51.466;6.806;2023-09-08T06:10:07;101432.00;;;18.95;80.96
16580;BME280;8402;51.466;6.806;2023-09-08T06:12:37;101418.63;;;18.93;81.23
16580;BME280;8402;51.466;6.806;2023-09-08T06:15:07;101421.38;;;18.93;81.52
16580;BME280;8402;51.466;6.806;2023-09-08T06:17:40;101424.56;;;18.95;81.32
16580;BME280;8402;51.466;6.806;2023-09-08T06:20:11;101428.91;;;18.96;81.63
16580;BME280;8402;51.466;6.806;2023-09-08T06:22:43;101421.88;;;18.99;81.36
16580;BME280;8402;51.466;6.806;2023-09-08T06:25:13;101429.09;;;19.04;81.67
16580;BME280;8402;51.466;6.806;2023-09-08T06:27:43;101426.88;;;19.09;82.15
16580;BME280;8402;51.466;6.806;2023-09-08T06:30:13;101423.84;;;19.14;82.36
16580;BME280;8402;51.466;6.806;2023-09-08T06:32:47;101428.28;;;19.19;82.52
16580;BME280;8402;51.466;6.806;2023-09-08T06:35:17;101432.78;;;19.27;82.89
16580;BME280;8402;51.466;6.806;2023-09-08T06:37:47;101425.34;;;19.43;82.78
16580;BME280;8402;51.466;6.806;2023-09-08T06:40:17;101425.56;;;19.70;82.87
16580;BME280;8402;51.466;6.806;2023-09-08T06:42:47;101426.66;;;20.00;83.89
16580;BME280;8402;51.466;6.806;2023-09-08T06:45:20;101429.66;;;20.34;84.84
16580;BME280;8402;51.466;6.806;2023-09-08T06:47:52;101427.13;;;20.64;84.59
16580;BME280;8402;51.466;6.806;2023-09-08T06:50:23;101432.06;;;20.97;83.62
16580;BME280;8402;51.466;6.806;2023-09-08T06:52:54;101422.66;;;21.25;83.44
16580;BME280;8402;51.466;6.806;2023-09-08T06:55:23;101430.63;;;21.53;82.12
16580;BME280;8402;51.466;6.806;2023-09-08T06:57:53;101429.38;;;21.77;81.75
16580;BME280;8402;51.466;6.806;2023-09-08T07:00:23;101424.53;;;22.00;81.22
16580;BME280;8402;51.466;6.806;2023-09-08T07:02:58;101421.75;;;22.27;80.86
16580;BME280;8402;51.466;6.806;2023-09-08T07:05:29;101411.00;;;22.55;79.80
16580;BME280;8402;51.466;6.806;2023-09-08T07:07:59;101402.56;;;22.82;79.71
16580;BME280;8402;51.466;6.806;2023-09-08T07:10:29;101417.03;;;23.05;78.97
16580;BME280;8402;51.466;6.806;2023-09-08T07:12:59;101414.84;;;23.28;78.12
16580;BME280;8402;51.466;6.806;2023-09-08T07:15:32;101411.84;;;23.51;77.48
16580;BME280;8402;51.466;6.806;2023-09-08T07:18:05;101418.72;;;23.75;76.72
16580;BME280;8402;51.466;6.806;2023-09-08T07:20:35;101417.25;;;23.99;76.52
16580;BME280;8402;51.466;6.806;2023-09-08T07:23:05;101424.88;;;24.20;75.42
16580;BME280;8402;51.466;6.806;2023-09-08T07:25:35;101424.97;;;24.41;75.13
16580;BME280;8402;51.466;6.806;2023-09-08T07:28:06;101432.16;;;24.64;73.95
16580;BME280;8402;51.466;6.806;2023-09-08T07:30:38;101428.25;;;24.86;72.93
16580;BME280;8402;51.466;6.806;2023-09-08T07:33:10;101430.63;;;25.06;71.48
16580;BME280;8402;51.466;6.806;2023-09-08T07:35:41;101430.63;;;25.27;71.05
16580;BME280;8402;51.466;6.806;2023-09-08T07:38:10;101435.38;;;25.48;71.21
16580;BME280;8402;51.466;6.806;2023-09-08T07:40:41;101429.81;;;25.73;70.60
16580;BME280;8402;51.466;6.806;2023-09-08T07:43:11;101435.31;;;25.94;69.80
16580;BME280;8402;51.466;6.806;2023-09-08T07:45:41;101424.88;;;26.16;69.14
16580;BME280;8402;51.466;6.806;2023-09-08T07:48:13;101429.53;;;26.37;67.88
16580;BME280;8402;51.466;6.806;2023-09-08T07:50:43;101427.03;;;26.60;67.81
16580;BME280;8402;51.466;6.806;2023-09-08T07:53:13;101432.44;;;26.85;67.08
16580;BME280;8402;51.466;6.806;2023-09-08T07:55:43;101431.50;;;27.03;64.81
16580;BME280;8402;51.466;6.806;2023-09-08T07:58:13;101421.88;;;27.14;63.17
16580;BME280;8402;51.466;6.806;2023-09-08T08:00:43;101419.78;;;27.26;63.10
16580;BME280;8402;51.466;6.806;2023-09-08T08:03:15;101412.09;;;27.40;61.04
16580;BME280;8402;51.466;6.806;2023-09-08T08:05:45;101416.81;;;27.47;61.86
16580;BME280;8402;51.466;6.806;2023-09-08T08:08:15;101411.81;;;27.69;61.94
16580;BME280;8402;51.466;6.806;2023-09-08T08:10:45;101409.13;;;27.96;62.52
16580;BME280;8402;51.466;6.806;2023-09-08T08:13:15;101412.09;;;28.12;60.32
16580;BME280;8402;51.466;6.806;2023-09-08T08:15:46;101413.47;;;28.28;60.27
16580;BME280;8402;51.466;6.806;2023-09-08T08:18:19;101412.47;;;28.45;60.69
16580;BME280;8402;51.466;6.806;2023-09-08T08:20:49;101418.84;;;28.72;60.65
16580;BME280;8402;51.466;6.806;2023-09-08T08:23:19;101413.22;;;28.99;59.63
16580;BME280;8402;51.466;6.806;2023-09-08T08:25:48;101417.53;;;29.27;58.67
16580;BME280;8402;51.466;6.806;2023-09-08T08:28:18;101411.56;;;29.49;57.46
16580;BME280;8402;51.466;6.806;2023-09-08T08:30:48;101417.63;;;29.67;57.17
16580;BME280;8402;51.466;6.806;2023-09-08T08:33:21;101409.31;;;29.83;55.54
16580;BME280;8402;51.466;6.806;2023-09-08T08:35:53;101414.56;;;30.01;55.42
16580;BME280;8402;51.466;6.806;2023-09-08T08:38:23;101412.16;;;30.00;53.23
16580;BME280;8402;51.466;6.806;2023-09-08T08:40:53;101407.44;;;29.97;49.93
16580;BME280;8402;51.466;6.806;2023-09-08T08:43:23;101411.63;;;29.88;50.77
16580;BME280;8402;51.466;6.806;2023-09-08T08:45:54;101407.59;;;29.90;50.34
16580;BME280;8402;51.466;6.806;2023-09-08T08:48:29;101412.88;;;30.04;50.28
16580;BME280;8402;51.466;6.806;2023-09-08T08:51:02;101413.19;;;29.90;49.05
16580;BME280;8402;51.466;6.806;2023-09-08T08:53:33;101409.81;;;29.98;50.56
16580;BME280;8402;51.466;6.806;2023-09-08T08:56:05;101405.59;;;30.10;49.39
16580;BME280;8402;51.466;6.806;2023-09-08T08:58:37;101411.03;;;30.17;49.50
16580;BME280;8402;51.466;6.806;2023-09-08T09:01:09;101405.19;;;30.28;48.78
16580;BME280;8402;51.466;6.806;2023-09-08T09:03:43;101403.56;;;30.47;49.25
16580;BME280;8402;51.466;6.806;2023-09-08T09:06:15;101401.53;;;30.67;50.26
16580;BME280;8402;51.466;6.806;2023-09-08T09:08:45;101402.47;;;30.93;50.38
16580;BME280;8402;51.466;6.806;2023-09-08T09:11:16;101402.19;;;31.20;49.92
16580;BME280;8402;51.466;6.806;2023-09-08T09:13:46;101415.50;;;31.32;48.37
16580;BME280;8402;51.466;6.806;2023-09-08T09:16:16;101412.06;;;31.41;47.62
16580;BME280;8402;51.466;6.806;2023-09-08T09:18:58;101406.97;;;31.52;46.36
16580;BME280;8402;51.466;6.806;2023-09-08T09:21:42;101401.75;;;31.67;47.17
16580;BME280;8402;51.466;6.806;2023-09-08T09:24:15;101405.09;;;31.62;44.70
16580;BME280;8402;51.466;6.806;2023-09-08T09:26:51;101403.50;;;31.61;44.47
16580;BME280;8402;51.466;6.806;2023-09-08T09:29:22;101404.28;;;31.61;45.93
16580;BME280;8402;51.466;6.806;2023-09-08T09:31:53;101410.75;;;31.45;45.02
16580;BME280;8402;51.466;6.806;2023-09-08T09:34:26;101409.53;;;31.46;45.31
16580;BME280;8402;51.466;6.806;2023-09-08T09:36:57;101411.41;;;31.66;45.87
16580;BME280;8402;51.466;6.806;2023-09-08T09:39:32;101399.59;;;31.87;46.75
16580;BME280;8402;51.466;6.806;2023-09-08T09:42:02;101396.91;;;31.96;45.32
16580;BME280;8402;51.466;6.806;2023-09-08T09:44:32;101398.59;;;31.94;44.89
16580;BME280;8402;51.466;6.806;2023-09-08T09:47:02;101401.81;;;31.92;44.91
16580;BME280;8402;51.466;6.806;2023-09-08T09:49:41;101391.84;;;32.04;44.56
16580;BME280;8402;51.466;6.806;2023-09-08T09:52:12;101396.13;;;32.21;45.45
16580;BME280;8402;51.466;6.806;2023-09-08T09:54:43;101396.69;;;32.29;43.82
16580;BME280;8402;51.466;6.806;2023-09-08T09:57:14;101394.34;;;32.27;44.05
16580;BME280;8402;51.466;6.806;2023-09-08T09:59:44;101405.34;;;32.22;42.65
16580;BME280;8402;51.466;6.806;2023-09-08T10:02:18;101395.34;;;32.21;43.81
16580;BME280;8402;51.466;6.806;2023-09-08T10:04:53;101384.63;;;32.32;42.71
16580;BME280;8402;51.466;6.806;2023-09-08T10:07:23;101395.28;;;32.50;44.02
16580;BME280;8402;51.466;6.806;2023-09-08T10:09:54;101390.88;;;32.62;43.92
16580;BME280;8402;51.466;6.806;2023-09-08T10:12:24;101391.34;;;32.73;44.35
16580;BME280;8402;51.466;6.806;2023-09-08T10:14:59;101396.72;;;32.80;44.03
16580;BME280;8402;51.466;6.806;2023-09-08T10:17:30;101393.00;;;32.96;44.20
16580;BME280;8402;51.466;6.806;2023-09-08T10:20:05;101396.44;;;33.12;43.77
16580;BME280;8402;51.466;6.806;2023-09-08T10:22:41;101388.91;;;33.09;41.83
16580;BME280;8402;51.466;6.806;2023-09-08T10:25:12;101396.31;;;33.16;43.71
16580;BME280;8402;51.466;6.806;2023-09-08T10:27:43;101391.28;;;33.11;42.86
16580;BME280;8402;51.466;6.806;2023-09-08T10:30:14;101386.50;;;33.21;43.93
16580;BME280;8402;51.466;6.806;2023-09-08T10:32:48;101385.91;;;33.38;43.30
16580;BME280;8402;51.466;6.806;2023-09-08T10:35:22;101385.50;;;33.49;42.68
16580;BME280;8402;51.466;6.806;2023-09-08T10:41:27;101391.00;;;33.75;42.57
16580;BME280;8402;51.466;6.806;2023-09-08T10:44:07;101394.41;;;33.70;40.96
16580;BME280;8402;51.466;6.806;2023-09-08T10:46:37;101380.91;;;33.64;39.81
16580;BME280;8402;51.466;6.806;2023-09-08T10:49:07;101393.44;;;33.63;42.12
16580;BME280;8402;51.466;6.806;2023-09-08T10:51:42;101392.00;;;33.81;41.55
16580;BME280;8402;51.466;6.806;2023-09-08T10:54:11;101392.72;;;33.94;42.09
16580;BME280;8402;51.466;6.806;2023-09-08T10:56:53;101382.34;;;34.13;41.54
16580;BME280;8402;51.466;6.806;2023-09-08T10:59:28;101396.03;;;34.33;41.84
16580;BME280;8402;51.466;6.806;2023-09-08T11:01:58;101399.44;;;34.28;39.82
16580;BME280;8402;51.466;6.806;2023-09-08T11:04:29;101392.84;;;34.21;40.03
16580;BME280;8402;51.466;6.806;2023-09-08T11:07:07;101388.84;;;34.32;40.61
16580;BME280;8402;51.466;6.806;2023-09-08T11:09:37;101384.47;;;34.40;41.58
16580;BME280;8402;51.466;6.806;2023-09-08T11:12:07;101387.97;;;34.44;40.32
16580;BME280;8402;51.466;6.806;2023-09-08T11:14:37;101399.09;;;34.47;40.56
16580;BME280;8402;51.466;6.806;2023-09-08T11:17:07;101393.63;;;34.53;40.67
16580;BME280;8402;51.466;6.806;2023-09-08T11:19:45;101393.06;;;34.36;39.23
16580;BME280;8402;51.466;6.806;2023-09-08T11:22:21;101391.72;;;34.41;40.22
16580;BME280;8402;51.466;6.806;2023-09-08T11:24:56;101394.56;;;34.50;41.09
16580;BME280;8402;51.466;6.806;2023-09-08T11:27:27;101397.25;;;34.54;40.45
16580;BME280;8402;51.466;6.806;2023-09-08T11:29:58;101389.41;;;34.58;39.79
16580;BME280;8402;51.466;6.806;2023-09-08T11:32:32;101382.75;;;34.73;40.82
16580;BME280;8402;51.466;6.806;2023-09-08T11:35:03;101389.63;;;34.82;40.47
16580;BME280;8402;51.466;6.806;2023-09-08T11:37:39;101384.03;;;34.91;40.17
16580;BME280;8402;51.466;6.806;2023-09-08T11:40:10;101378.88;;;34.98;39.88
16580;BME280;8402;51.466;6.806;2023-09-08T11:42:42;101374.78;;;34.99;39.55
16580;BME280;8402;51.466;6.806;2023-09-08T11:45:13;101382.75;;;34.83;39.13
16580;BME280;8402;51.466;6.806;2023-09-08T11:47:45;101373.16;;;34.62;38.61
16580;BME280;8402;51.466;6.806;2023-09-08T11:50:18;101374.03;;;34.49;39.82
16580;BME280;8402;51.466;6.806;2023-09-08T11:52:52;101372.66;;;34.54;40.12
16580;BME280;8402;51.466;6.806;2023-09-08T11:55:26;101373.00;;;34.65;40.08
16580;BME280;8402;51.466;6.806;2023-09-08T11:57:56;101368.00;;;34.69;40.04
16580;BME280;8402;51.466;6.806;2023-09-08T12:00:28;101371.78;;;34.75;40.46
16580;BME280;8402;51.466;6.806;2023-09-08T12:03:09;101363.00;;;34.73;40.78
16580;BME280;8402;51.466;6.806;2023-09-08T12:05:40;101371.47;;;34.83;40.97
16580;BME280;8402;51.466;6.806;2023-09-08T12:08:14;101364.59;;;34.93;40.78
16580;BME280;8402;51.466;6.806;2023-09-08T12:10:44;101363.03;;;34.92;40.74
16580;BME280;8402;51.466;6.806;2023-09-08T12:13:20;101365.81;;;34.83;39.71
16580;BME280;8402;51.466;6.806;2023-09-08T12:15:52;101361.44;;;34.72;39.00
16580;BME280;8402;51.466;6.806;2023-09-08T12:18:37;101354.19;;;34.53;39.36
16580;BME280;8402;51.466;6.806;2023-09-08T12:21:10;101361.41;;;34.63;40.08
16580;BME280;8402;51.466;6.806;2023-09-08T12:23:53;101355.16;;;34.68;40.54
16580;BME280;8402;51.466;6.806;2023-09-08T12:26:24;101357.53;;;34.88;40.62
16580;BME280;8402;51.466;6.806;2023-09-08T12:28:54;101349.13;;;34.97;40.42
16580;BME280;8402;51.466;6.806;2023-09-08T12:31:24;101351.16;;;35.06;40.70
16580;BME280;8402;51.466;6.806;2023-09-08T12:33:54;101355.69;;;34.94;39.60
16580;BME280;8402;51.466;6.806;2023-09-08T12:36:25;101358.97;;;34.93;39.29
16580;BME280;8402;51.466;6.806;2023-09-08T12:38:57;101351.63;;;34.95;40.17
16580;BME280;8402;51.466;6.806;2023-09-08T12:41:30;101343.81;;;35.09;40.07
16580;BME280;8402;51.466;6.806;2023-09-08T12:44:00;101344.56;;;35.18;40.64
16580;BME280;8402;51.466;6.806;2023-09-08T12:46:30;101343.31;;;35.28;39.62
16580;BME280;8402;51.466;6.806;2023-09-08T12:49:02;101339.56;;;35.22;38.56
16580;BME280;8402;51.466;6.806;2023-09-08T12:51:35;101345.22;;;35.22;39.00
16580;BME280;8402;51.466;6.806;2023-09-08T12:54:08;101346.13;;;35.28;38.96
16580;BME280;8402;51.466;6.806;2023-09-08T12:56:37;101335.28;;;35.36;38.89
16580;BME280;8402;51.466;6.806;2023-09-08T12:59:07;101340.78;;;35.21;37.34
16580;BME280;8402;51.466;6.806;2023-09-08T13:01:37;101341.44;;;35.16;38.71
16580;BME280;8402;51.466;6.806;2023-09-08T13:04:07;101336.09;;;35.18;37.65
16580;BME280;8402;51.466;6.806;2023-09-08T13:06:51;101344.25;;;35.25;37.62
16580;BME280;8402;51.466;6.806;2023-09-08T13:09:23;101337.03;;;35.34;38.35
16580;BME280;8402;51.466;6.806;2023-09-08T13:11:54;101331.09;;;35.41;37.78
16580;BME280;8402;51.466;6.806;2023-09-08T13:14:23;101333.91;;;35.50;37.47
16580;BME280;8402;51.466;6.806;2023-09-08T13:17:07;101327.03;;;35.51;38.14
16580;BME280;8402;51.466;6.806;2023-09-08T13:19:40;101326.38;;;35.65;38.21
16580;BME280;8402;51.466;6.806;2023-09-08T13:22:10;101322.25;;;35.75;36.58
16580;BME280;8402;51.466;6.806;2023-09-08T13:24:43;101325.09;;;35.66;35.85
16580;BME280;8402;51.466;6.806;2023-09-08T13:27:13;101322.56;;;35.68;37.50
16580;BME280;8402;51.466;6.806;2023-09-08T13:29:44;101327.69;;;35.79;37.45
16580;BME280;8402;51.466;6.806;2023-09-08T13:32:16;101317.22;;;35.79;37.65
16580;BME280;8402;51.466;6.806;2023-09-08T13:34:46;101307.47;;;35.80;37.74
16580;BME280;8402;51.466;6.806;2023-09-08T13:37:16;101313.75;;;35.94;37.26
16580;BME280;8402;51.466;6.806;2023-09-08T13:39:49;101309.34;;;35.93;36.09
16580;BME280;8402;51.466;6.806;2023-09-08T13:42:19;101308.09;;;35.84;36.05
16580;BME280;8402;51.466;6.806;2023-09-08T13:44:51;101302.13;;;35.82;35.73
16580;BME280;8402;51.466;6.806;2023-09-08T13:47:22;101303.41;;;35.81;36.07
16580;BME280;8402;51.466;6.806;2023-09-08T13:49:54;101294.94;;;35.81;35.59
16580;BME280;8402;51.466;6.806;2023-09-08T13:52:27;101307.31;;;35.84;36.34
16580;BME280;8402;51.466;6.806;2023-09-08T13:55:02;101300.25;;;35.89;36.32
16580;BME280;8402;51.466;6.806;2023-09-08T13:57:52;101302.69;;;36.05;37.02
16580;BME280;8402;51.466;6.806;2023-09-08T14:00:22;101306.72;;;36.13;36.51
16580;BME280;8402;51.466;6.806;2023-09-08T14:02:57;101302.63;;;36.14;36.19
16580;BME280;8402;51.466;6.806;2023-09-08T14:05:32;101300.72;;;36.20;36.04
16580;BME280;8402;51.466;6.806;2023-09-08T14:08:17;101301.16;;;36.28;36.56
16580;BME280;8402;51.466;6.806;2023-09-08T14:10:57;101297.53;;;36.36;35.30
16580;BME280;8402;51.466;6.806;2023-09-08T14:13:38;101298.75;;;36.35;35.70
16580;BME280;8402;51.466;6.806;2023-09-08T14:16:11;101292.47;;;36.41;35.84
16580;BME280;8402;51.466;6.806;2023-09-08T14:18:41;101295.25;;;36.50;36.71
16580;BME280;8402;51.466;6.806;2023-09-08T14:21:19;101297.03;;;36.62;36.31
16580;BME280;8402;51.466;6.806;2023-09-08T14:23:48;101294.91;;;36.72;36.23
16580;BME280;8402;51.466;6.806;2023-09-08T14:26:21;101297.28;;;36.73;34.02
16580;BME280;8402;51.466;6.806;2023-09-08T14:28:52;101292.53;;;36.55;34.86
16580;BME280;8402;51.466;6.806;2023-09-08T14:31:22;101291.47;;;36.53;35.22
16580;BME280;8402;51.466;6.806;2023-09-08T14:33:52;101282.16;;;36.37;35.18
16580;BME280;8402;51.466;6.806;2023-09-08T14:36:22;101289.84;;;36.28;35.20
16580;BME280;8402;51.466;6.806;2023-09-08T14:38:52;101285.50;;;35.94;35.62
16580;BME280;8402;51.466;6.806;2023-09-08T14:41:25;101288.31;;;35.84;36.54
16580;BME280;8402;51.466;6.806;2023-09-08T14:43:55;101278.75;;;35.91;35.50
16580;BME280;8402;51.466;6.806;2023-09-08T14:46:25;101280.28;;;36.01;35.93
16580;BME280;8402;51.466;6.806;2023-09-08T14:49:01;101280.22;;;36.10;35.86
16580;BME280;8402;51.466;6.806;2023-09-08T14:51:31;101279.34;;;36.28;36.34
16580;BME280;8402;51.466;6.806;2023-09-08T14:54:01;101281.50;;;36.33;35.98
16580;BME280;8402;51.466;6.806;2023-09-08T14:56:34;101276.50;;;36.37;35.42
16580;BME280;8402;51.466;6.806;2023-09-08T14:59:04;101284.75;;;36.17;34.69
16580;BME280;8402;51.466;6.806;2023-09-08T15:01:34;101277.03;;;35.94;35.21
16580;BME280;8402;51.466;6.806;2023-09-08T15:04:05;101281.72;;;35.97;36.35
16580;BME280;8402;51.466;6.806;2023-09-08T15:06:35;101280.75;;;36.00;36.50
16580;BME280;8402;51.466;6.806;2023-09-08T15:09:05;101282.28;;;36.10;36.39
16580;BME280;8402;51.466;6.806;2023-09-08T15:11:38;101270.97;;;36.10;36.34
16580;BME280;8402;51.466;6.806;2023-09-08T15:14:07;101275.66;;;36.13;37.05
16580;BME280;8402;51.466;6.806;2023-09-08T15:16:40;101270.13;;;36.19;36.56
16580;BME280;8402;51.466;6.806;2023-09-08T15:19:10;101270.28;;;36.24;36.94
16580;BME280;8402;51.466;6.806;2023-09-08T15:21:40;101269.63;;;36.29;37.06
16580;BME280;8402;51.466;6.806;2023-09-08T15:24:10;101268.03;;;36.28;37.27
16580;BME280;8402;51.466;6.806;2023-09-08T15:26:42;101276.44;;;36.14;36.56
16580;BME280;8402;51.466;6.806;2023-09-08T15:29:13;101268.50;;;36.03;36.96
16580;BME280;8402;51.466;6.806;2023-09-08T15:31:42;101265.72;;;35.84;37.60
16580;BME280;8402;51.466;6.806;2023-09-08T15:34:12;101268.13;;;35.77;37.23
16580;BME280;8402;51.466;6.806;2023-09-08T15:36:42;101265.50;;;35.64;36.54
16580;BME280;8402;51.466;6.806;2023-09-08T15:39:14;101270.53;;;35.60;37.27
16580;BME280;8402;51.466;6.806;2023-09-08T15:41:46;101272.09;;;35.61;37.28
16580;BME280;8402;51.466;6.806;2023-09-08T15:44:16;101260.94;;;35.67;37.70
16580;BME280;8402;51.466;6.806;2023-09-08T15:46:46;101257.34;;;35.66;37.53
16580;BME280;8402;51.466;6.806;2023-09-08T15:49:16;101262.22;;;35.66;37.39
16580;BME280;8402;51.466;6.806;2023-09-08T15:51:48;101255.50;;;35.54;37.76
16580;BME280;8402;51.466;6.806;2023-09-08T15:54:38;101249.22;;;35.50;38.58
16580;BME280;8402;51.466;6.806;2023-09-08T15:57:11;101256.13;;;35.49;38.45
16580;BME280;8402;51.466;6.806;2023-09-08T15:59:56;101263.38;;;35.41;38.73
16580;BME280;8402;51.466;6.806;2023-09-08T16:02:26;101260.22;;;35.39;38.08
16580;BME280;8402;51.466;6.806;2023-09-08T16:04:56;101260.38;;;35.35;38.82
16580;BME280;8402;51.466;6.806;2023-09-08T16:07:26;101260.56;;;35.32;38.47
16580;BME280;8402;51.466;6.806;2023-09-08T16:09:56;101261.50;;;35.28;39.23
16580;BME280;8402;51.466;6.806;2023-09-08T16:12:28;101263.22;;;35.26;39.33
16580;BME280;8402;51.466;6.806;2023-09-08T16:14:58;101264.50;;;35.16;38.21
16580;BME280;8402;51.466;6.806;2023-09-08T16:17:28;101269.69;;;35.08;39.31
16580;BME280;8402;51.466;6.806;2023-09-08T16:19:58;101260.44;;;34.98;40.57
16580;BME280;8402;51.466;6.806;2023-09-08T16:22:28;101266.41;;;34.91;40.35
16580;BME280;8402;51.466;6.806;2023-09-08T16:24:58;101264.66;;;34.85;41.07
16580;BME280;8402;51.466;6.806;2023-09-08T16:27:30;101258.41;;;34.81;41.23
16580;BME280;8402;51.466;6.806;2023-09-08T16:30:00;101255.91;;;34.73;41.64
16580;BME280;8402;51.466;6.806;2023-09-08T16:32:31;101253.69;;;34.68;42.34
16580;BME280;8402;51.466;6.806;2023-09-08T16:35:01;101257.28;;;34.60;42.89
16580;BME280;8402;51.466;6.806;2023-09-08T16:37:31;101252.44;;;34.51;43.22
16580;BME280;8402;51.466;6.806;2023-09-08T16:40:01;101246.78;;;34.42;42.97
16580;BME280;8402;51.466;6.806;2023-09-08T16:42:34;101251.13;;;34.34;43.75
16580;BME280;8402;51.466;6.806;2023-09-08T16:45:05;101244.69;;;34.24;44.82
16580;BME280;8402;51.466;6.806;2023-09-08T16:47:35;101253.56;;;34.13;45.34
16580;BME280;8402;51.466;6.806;2023-09-08T16:50:07;101253.25;;;34.02;45.54
16580;BME280;8402;51.466;6.806;2023-09-08T16:52:37;101260.06;;;33.92;45.75
16580;BME280;8402;51.466;6.806;2023-09-08T16:55:07;101255.75;;;33.78;46.18
16580;BME280;8402;51.466;6.806;2023-09-08T16:57:41;101261.53;;;33.65;47.15
16580;BME280;8402;51.466;6.806;2023-09-08T17:00:11;101263.94;;;33.54;47.22
16580;BME280;8402;51.466;6.806;2023-09-08T17:02:41;101268.09;;;33.40;47.65
16580;BME280;8402;51.466;6.806;2023-09-08T17:05:11;101255.19;;;33.30;48.63
16580;BME280;8402;51.466;6.806;2023-09-08T17:07:44;101258.72;;;33.22;48.50
16580;BME280;8402;51.466;6.806;2023-09-08T17:10:14;101258.34;;;33.10;48.91
16580;BME280;8402;51.466;6.806;2023-09-08T17:12:46;101257.94;;;32.99;49.30
16580;BME280;8402;51.466;6.806;2023-09-08T17:15:16;101259.91;;;32.90;49.70
16580;BME280;8402;51.466;6.806;2023-09-08T17:18:00;101255.69;;;32.72;50.40
16580;BME280;8402;51.466;6.806;2023-09-08T17:20:33;101264.78;;;32.64;50.97
16580;BME280;8402;51.466;6.806;2023-09-08T17:23:05;101268.75;;;32.53;51.17
16580;BME280;8402;51.466;6.806;2023-09-08T17:25:35;101260.69;;;32.43;51.88
16580;BME280;8402;51.466;6.806;2023-09-08T17:28:08;101261.91;;;32.29;51.76
16580;BME280;8402;51.466;6.806;2023-09-08T17:30:38;101256.66;;;32.18;52.71
16580;BME280;8402;51.466;6.806;2023-09-08T17:33:08;101267.34;;;32.11;52.75
16580;BME280;8402;51.466;6.806;2023-09-08T17:35:38;101269.13;;;32.04;52.48
16580;BME280;8402;51.466;6.806;2023-09-08T17:38:10;101259.38;;;31.96;52.30
16580;BME280;8402;51.466;6.806;2023-09-08T17:40:40;101268.91;;;31.86;53.16
16580;BME280;8402;51.466;6.806;2023-09-08T17:43:13;101262.31;;;31.80;53.14
16580;BME280;8402;51.466;6.806;2023-09-08T17:45:44;101274.94;;;31.72;53.10
16580;BME280;8402;51.466;6.806;2023-09-08T17:48:14;101269.31;;;31.59;53.18
16580;BME280;8402;51.466;6.806;2023-09-08T17:50:44;101267.16;;;31.50;54.17
16580;BME280;8402;51.466;6.806;2023-09-08T17:53:14;101277.38;;;31.44;54.03
16580;BME280;8402;51.466;6.806;2023-09-08T17:55:43;101281.59;;;31.36;54.57
16580;BME280;8402;51.466;6.806;2023-09-08T17:58:16;101280.22;;;31.28;53.91
16580;BME280;8402;51.466;6.806;2023-09-08T18:00:46;101278.84;;;31.20;54.22
16580;BME280;8402;51.466;6.806;2023-09-08T18:03:16;101283.84;;;31.12;54.58
16580;BME280;8402;51.466;6.806;2023-09-08T18:05:48;101277.66;;;31.05;54.94
16580;BME280;8402;51.466;6.806;2023-09-08T18:08:18;101278.75;;;30.94;54.12
16580;BME280;8402;51.466;6.806;2023-09-08T18:10:48;101280.97;;;30.87;54.26
16580;BME280;8402;51.466;6.806;2023-09-08T18:13:21;101272.84;;;30.76;55.00
16580;BME280;8402;51.466;6.806;2023-09-08T18:15:56;101278.78;;;30.62;55.12
16580;BME280;8402;51.466;6.806;2023-09-08T18:18:26;101282.28;;;30.50;54.90
16580;BME280;8402;51.466;6.806;2023-09-08T18:20:56;101287.38;;;30.38;55.20
16580;BME280;8402;51.466;6.806;2023-09-08T18:23:26;101286.06;;;30.27;55.53
16580;BME280;8402;51.466;6.806;2023-09-08T18:25:56;101283.16;;;30.14;55.58
16580;BME280;8402;51.466;6.806;2023-09-08T18:28:28;101284.16;;;30.04;56.15
16580;BME280;8402;51.466;6.806;2023-09-08T18:30:58;101285.28;;;29.90;56.29
16580;BME280;8402;51.466;6.806;2023-09-08T18:33:28;101295.91;;;29.79;56.39
16580;BME280;8402;51.466;6.806;2023-09-08T18:35:58;101301.75;;;29.68;56.99
16580;BME280;8402;51.466;6.806;2023-09-08T18:38:28;101294.38;;;29.58;56.73
16580;BME280;8402;51.466;6.806;2023-09-08T18:40:58;101293.34;;;29.48;56.04
16580;BME280;8402;51.466;6.806;2023-09-08T18:43:31;101295.84;;;29.43;56.70
16580;BME280;8402;51.466;6.806;2023-09-08T18:46:01;101295.66;;;29.33;56.38
16580;BME280;8402;51.466;6.806;2023-09-08T18:48:31;101301.72;;;29.28;56.93
16580;BME280;8402;51.466;6.806;2023-09-08T18:51:01;101303.81;;;29.24;56.91
16580;BME280;8402;51.466;6.806;2023-09-08T18:53:31;101297.16;;;29.18;57.22
16580;BME280;8402;51.466;6.806;2023-09-08T18:56:02;101301.66;;;29.12;56.88
16580;BME280;8402;51.466;6.806;2023-09-08T18:58:35;101304.53;;;29.09;57.27
16580;BME280;8402;51.466;6.806;2023-09-08T19:01:05;101302.66;;;29.02;57.28
16580;BME280;8402;51.466;6.806;2023-09-08T19:03:35;101309.50;;;28.97;57.45